sensor_id;sensor_type;location;lat;lon;timestamp;P1;durP1;ratioP1;P2;durP2;ratioP2
51226;SDS011;42714;48.260;10.980;2023-05-23T00:03:54;27.7;;;14.3;;
51226;SDS011;42714;48.260;10.980;2023-05-23T00:08:55;22.6;;;13.5;;
51226;SDS011;42714;48.260;10.980;2023-05-23T00:13:54;20.7;;;13.6;;
51226;SDS011;42714;48.260;10.980;2023-05-23T00:18:54;25.3;;;14.4;;
51226;SDS011;42714;48.260;10.980;2023-05-23T00:23:54;25.1;;;14.0;;
51226;SDS011;42714;48.260;10.980;2023-05-23T00:28:54;22.5;;;13.9;;
51226;SDS011;42714;48.260;10.980;2023-05-23T00:33:54;23.0;;;14.4;;
51226;SDS011;42714;48.260;10.980;2023-05-23T00:38:54;27.2;;;14.8;;
51226;SDS011;42714;48.260;10.980;2023-05-23T00:43:55;24.9;;;14.9;;
51226;SDS011;42714;48.260;10.980;2023-05-23T00:48:54;28.7;;;15.2;;
51226;SDS011;42714;48.260;10.980;2023-05-23T00:53:54;26.3;;;15.8;;
51226;SDS011;42714;48.260;10.980;2023-05-23T00:58:54;27.7;;;15.2;;
51226;SDS011;42714;48.260;10.980;2023-05-23T01:03:54;27.3;;;15.9;;
51226;SDS011;42714;48.260;10.980;2023-05-23T01:08:55;24.2;;;15.7;;
51226;SDS011;42714;48.260;10.980;2023-05-23T01:13:58;24.1;;;16.2;;
51226;SDS011;42714;48.260;10.980;2023-05-23T01:18:57;28.0;;;16.4;;
51226;SDS011;42714;48.260;10.980;2023-05-23T01:28:55;29.8;;;17.6;;
51226;SDS011;42714;48.260;10.980;2023-05-23T01:33:54;28.8;;;17.0;;
51226;SDS011;42714;48.260;10.980;2023-05-23T01:38:54;26.7;;;17.1;;
51226;SDS011;42714;48.260;10.980;2023-05-23T01:43:54;27.9;;;17.9;;
51226;SDS011;42714;48.260;10.980;2023-05-23T01:48:54;28.7;;;17.6;;
51226;SDS011;42714;48.260;10.980;2023-05-23T01:53:54;28.0;;;17.6;;
51226;SDS011;42714;48.260;10.980;2023-05-23T01:58:54;30.7;;;17.9;;
51226;SDS011;42714;48.260;10.980;2023-05-23T02:03:54;30.7;;;18.4;;
51226;SDS011;42714;48.260;10.980;2023-05-23T02:08:54;32.0;;;18.7;;
51226;SDS011;42714;48.260;10.980;2023-05-23T02:13:54;31.5;;;18.4;;
51226;SDS011;42714;48.260;10.980;2023-05-23T02:18:55;33.5;;;20.3;;
51226;SDS011;42714;48.260;10.980;2023-05-23T02:23:55;40.6;;;22.3;;
51226;SDS011;42714;48.260;10.980;2023-05-23T02:28:55;40.5;;;22.3;;
51226;SDS011;42714;48.260;10.980;2023-05-23T02:33:55;34.5;;;20.9;;
51226;SDS011;42714;48.260;10.980;2023-05-23T02:38:55;36.8;;;23.4;;
51226;SDS011;42714;48.260;10.980;2023-05-23T02:43:55;34.1;;;22.0;;
51226;SDS011;42714;48.260;10.980;2023-05-23T02:48:55;41.8;;;22.6;;
51226;SDS011;42714;48.260;10.980;2023-05-23T02:53:55;40.7;;;22.2;;
51226;SDS011;42714;48.260;10.980;2023-05-23T02:58:55;37.6;;;22.6;;
51226;SDS011;42714;48.260;10.980;2023-05-23T03:03:55;39.0;;;22.1;;
51226;SDS011;42714;48.260;10.980;2023-05-23T03:08:55;39.6;;;23.7;;
51226;SDS011;42714;48.260;10.980;2023-05-23T03:13:55;40.0;;;24.0;;
51226;SDS011;42714;48.260;10.980;2023-05-23T03:18:55;42.7;;;24.2;;
51226;SDS011;42714;48.260;10.980;2023-05-23T03:23:55;39.5;;;23.0;;
51226;SDS011;42714;48.260;10.980;2023-05-23T03:28:55;42.7;;;23.9;;
51226;SDS011;42714;48.260;10.980;2023-05-23T03:33:55;43.2;;;24.8;;
51226;SDS011;42714;48.260;10.980;2023-05-23T03:38:55;45.5;;;23.8;;
51226;SDS011;42714;48.260;10.980;2023-05-23T03:43:55;42.1;;;24.1;;
51226;SDS011;42714;48.260;10.980;2023-05-23T03:48:55;43.7;;;24.6;;
51226;SDS011;42714;48.260;10.980;2023-05-23T03:53:55;42.2;;;25.8;;
51226;SDS011;42714;48.260;10.980;2023-05-23T03:58:55;46.8;;;25.3;;
51226;SDS011;42714;48.260;10.980;2023-05-23T04:08:55;47.8;;;26.1;;
51226;SDS011;42714;48.260;10.980;2023-05-23T04:13:55;45.2;;;26.1;;
51226;SDS011;42714;48.260;10.980;2023-05-23T04:18:55;46.3;;;26.4;;
51226;SDS011;42714;48.260;10.980;2023-05-23T04:23:55;50.2;;;26.9;;
51226;SDS011;42714;48.260;10.980;2023-05-23T04:28:55;45.7;;;27.1;;
51226;SDS011;42714;48.260;10.980;2023-05-23T04:33:55;46.7;;;26.5;;
51226;SDS011;42714;48.260;10.980;2023-05-23T04:38:55;46.1;;;24.4;;
51226;SDS011;42714;48.260;10.980;2023-05-23T04:43:55;39.9;;;23.6;;
51226;SDS011;42714;48.260;10.980;2023-05-23T04:48:55;38.1;;;23.7;;
51226;SDS011;42714;48.260;10.980;2023-05-23T04:53:55;38.6;;;21.8;;
51226;SDS011;42714;48.260;10.980;2023-05-23T04:58:55;40.4;;;22.0;;
51226;SDS011;42714;48.260;10.980;2023-05-23T05:03:55;36.9;;;21.8;;
51226;SDS011;42714;48.260;10.980;2023-05-23T05:08:55;39.5;;;22.6;;
51226;SDS011;42714;48.260;10.980;2023-05-23T05:13:55;37.1;;;22.4;;
51226;SDS011;42714;48.260;10.980;2023-05-23T05:18:55;36.2;;;21.9;;
51226;SDS011;42714;48.260;10.980;2023-05-23T05:23:55;40.0;;;23.8;;
51226;SDS011;42714;48.260;10.980;2023-05-23T05:28:55;38.9;;;24.2;;
51226;SDS011;42714;48.260;10.980;2023-05-23T05:33:55;40.9;;;24.2;;
51226;SDS011;42714;48.260;10.980;2023-05-23T05:38:55;41.6;;;24.4;;
51226;SDS011;42714;48.260;10.980;2023-05-23T05:43:55;48.8;;;26.5;;
51226;SDS011;42714;48.260;10.980;2023-05-23T05:48:55;37.9;;;23.7;;
51226;SDS011;42714;48.260;10.980;2023-05-23T05:53:55;36.0;;;21.6;;
51226;SDS011;42714;48.260;10.980;2023-05-23T05:58:55;38.8;;;22.1;;
51226;SDS011;42714;48.260;10.980;2023-05-23T06:03:55;41.8;;;22.7;;
51226;SDS011;42714;48.260;10.980;2023-05-23T06:08:55;39.1;;;23.6;;
51226;SDS011;42714;48.260;10.980;2023-05-23T06:13:55;39.5;;;23.5;;
51226;SDS011;42714;48.260;10.980;2023-05-23T06:18:55;46.6;;;26.9;;
51226;SDS011;42714;48.260;10.980;2023-05-23T06:23:55;44.9;;;27.1;;
51226;SDS011;42714;48.260;10.980;2023-05-23T06:28:55;44.9;;;26.5;;
51226;SDS011;42714;48.260;10.980;2023-05-23T06:33:55;42.3;;;25.7;;
51226;SDS011;42714;48.260;10.980;2023-05-23T06:38:55;46.9;;;27.3;;
51226;SDS011;42714;48.260;10.980;2023-05-23T06:43:55;45.3;;;27.4;;
51226;SDS011;42714;48.260;10.980;2023-05-23T06:48:55;47.2;;;27.3;;
51226;SDS011;42714;48.260;10.980;2023-05-23T06:53:55;41.7;;;26.0;;
51226;SDS011;42714;48.260;10.980;2023-05-23T06:58:55;45.6;;;27.5;;
51226;SDS011;42714;48.260;10.980;2023-05-23T07:03:55;42.8;;;26.3;;
51226;SDS011;42714;48.260;10.980;2023-05-23T07:08:55;49.1;;;27.8;;
51226;SDS011;42714;48.260;10.980;2023-05-23T07:13:55;42.5;;;26.3;;
51226;SDS011;42714;48.260;10.980;2023-05-23T07:18:55;41.5;;;26.2;;
51226;SDS011;42714;48.260;10.980;2023-05-23T07:23:55;45.6;;;26.9;;
51226;SDS011;42714;48.260;10.980;2023-05-23T07:28:55;44.0;;;26.0;;
51226;SDS011;42714;48.260;10.980;2023-05-23T07:33:55;46.1;;;27.3;;
51226;SDS011;42714;48.260;10.980;2023-05-23T07:38:55;47.2;;;28.6;;
51226;SDS011;42714;48.260;10.980;2023-05-23T07:43:55;48.1;;;28.4;;
51226;SDS011;42714;48.260;10.980;2023-05-23T07:48:55;46.9;;;27.4;;
51226;SDS011;42714;48.260;10.980;2023-05-23T07:53:55;50.9;;;28.3;;
51226;SDS011;42714;48.260;10.980;2023-05-23T07:58:55;47.6;;;27.1;;
51226;SDS011;42714;48.260;10.980;2023-05-23T08:03:55;43.4;;;27.5;;
51226;SDS011;42714;48.260;10.980;2023-05-23T08:08:55;49.0;;;27.3;;
51226;SDS011;42714;48.260;10.980;2023-05-23T08:13:55;40.9;;;26.9;;
51226;SDS011;42714;48.260;10.980;2023-05-23T08:18:55;44.7;;;27.1;;
51226;SDS011;42714;48.260;10.980;2023-05-23T08:23:55;39.2;;;25.4;;
51226;SDS011;42714;48.260;10.980;2023-05-23T08:28:55;42.5;;;24.7;;
51226;SDS011;42714;48.260;10.980;2023-05-23T08:33:55;41.0;;;25.0;;
51226;SDS011;42714;48.260;10.980;2023-05-23T08:38:55;40.0;;;24.3;;
51226;SDS011;42714;48.260;10.980;2023-05-23T08:43:56;42.0;;;24.2;;
51226;SDS011;42714;48.260;10.980;2023-05-23T08:48:55;39.0;;;23.8;;
51226;SDS011;42714;48.260;10.980;2023-05-23T08:53:55;41.8;;;24.5;;
51226;SDS011;42714;48.260;10.980;2023-05-23T08:58:56;40.6;;;25.2;;
51226;SDS011;42714;48.260;10.980;2023-05-23T09:03:55;44.2;;;26.6;;
51226;SDS011;42714;48.260;10.980;2023-05-23T09:08:55;42.3;;;25.5;;
51226;SDS011;42714;48.260;10.980;2023-05-23T09:13:55;42.7;;;25.1;;
51226;SDS011;42714;48.260;10.980;2023-05-23T09:18:55;38.3;;;23.2;;
51226;SDS011;42714;48.260;10.980;2023-05-23T09:23:55;37.7;;;22.5;;
51226;SDS011;42714;48.260;10.980;2023-05-23T09:28:58;36.9;;;22.3;;
51226;SDS011;42714;48.260;10.980;2023-05-23T09:33:56;39.0;;;22.1;;
51226;SDS011;42714;48.260;10.980;2023-05-23T09:38:55;36.2;;;21.1;;
51226;SDS011;42714;48.260;10.980;2023-05-23T09:43:55;34.7;;;21.5;;
51226;SDS011;42714;48.260;10.980;2023-05-23T09:48:55;35.6;;;22.3;;
51226;SDS011;42714;48.260;10.980;2023-05-23T09:53:55;40.5;;;24.6;;
51226;SDS011;42714;48.260;10.980;2023-05-23T09:58:55;37.6;;;23.3;;
51226;SDS011;42714;48.260;10.980;2023-05-23T10:03:55;37.8;;;22.6;;
51226;SDS011;42714;48.260;10.980;2023-05-23T10:08:56;35.6;;;21.4;;
51226;SDS011;42714;48.260;10.980;2023-05-23T10:13:55;29.5;;;19.2;;
51226;SDS011;42714;48.260;10.980;2023-05-23T10:18:56;31.2;;;17.6;;
51226;SDS011;42714;48.260;10.980;2023-05-23T10:23:55;22.7;;;15.8;;
51226;SDS011;42714;48.260;10.980;2023-05-23T10:28:56;25.4;;;16.8;;
51226;SDS011;42714;48.260;10.980;2023-05-23T10:33:57;28.6;;;17.6;;
51226;SDS011;42714;48.260;10.980;2023-05-23T10:38:59;44.4;;;20.8;;
51226;SDS011;42714;48.260;10.980;2023-05-23T10:44:00;42.5;;;21.5;;
51226;SDS011;42714;48.260;10.980;2023-05-23T10:48:55;32.3;;;17.4;;
51226;SDS011;42714;48.260;10.980;2023-05-23T10:53:55;20.2;;;13.8;;
51226;SDS011;42714;48.260;10.980;2023-05-23T10:58:55;26.6;;;15.1;;
51226;SDS011;42714;48.260;10.980;2023-05-23T11:03:55;23.6;;;13.0;;
51226;SDS011;42714;48.260;10.980;2023-05-23T11:13:56;19.8;;;12.7;;
51226;SDS011;42714;48.260;10.980;2023-05-23T11:19:18;16.3;;;11.2;;
51226;SDS011;42714;48.260;10.980;2023-05-23T11:23:55;15.2;;;10.7;;
51226;SDS011;42714;48.260;10.980;2023-05-23T11:28:55;16.4;;;11.1;;
51226;SDS011;42714;48.260;10.980;2023-05-23T11:33:55;17.4;;;11.2;;
51226;SDS011;42714;48.260;10.980;2023-05-23T11:38:55;15.9;;;10.9;;
51226;SDS011;42714;48.260;10.980;2023-05-23T11:43:55;17.6;;;10.8;;
51226;SDS011;42714;48.260;10.980;2023-05-23T11:48:55;16.6;;;10.6;;
51226;SDS011;42714;48.260;10.980;2023-05-23T11:53:59;21.9;;;12.1;;
51226;SDS011;42714;48.260;10.980;2023-05-23T11:58:55;23.7;;;13.9;;
51226;SDS011;42714;48.260;10.980;2023-05-23T12:03:55;18.5;;;12.5;;
51226;SDS011;42714;48.260;10.980;2023-05-23T12:08:55;26.1;;;12.6;;
51226;SDS011;42714;48.260;10.980;2023-05-23T12:13:55;19.2;;;11.2;;
51226;SDS011;42714;48.260;10.980;2023-05-23T12:18:56;23.4;;;12.3;;
51226;SDS011;42714;48.260;10.980;2023-05-23T12:23:55;21.9;;;12.9;;
51226;SDS011;42714;48.260;10.980;2023-05-23T12:28:56;20.0;;;12.1;;
51226;SDS011;42714;48.260;10.980;2023-05-23T12:33:55;20.1;;;12.2;;
51226;SDS011;42714;48.260;10.980;2023-05-23T12:39:00;21.7;;;12.3;;
51226;SDS011;42714;48.260;10.980;2023-05-23T12:43:55;19.3;;;12.5;;
51226;SDS011;42714;48.260;10.980;2023-05-23T12:48:55;16.4;;;11.4;;
51226;SDS011;42714;48.260;10.980;2023-05-23T12:53:55;21.4;;;10.9;;
51226;SDS011;42714;48.260;10.980;2023-05-23T12:58:55;20.0;;;10.7;;
51226;SDS011;42714;48.260;10.980;2023-05-23T13:03:55;20.5;;;12.4;;
51226;SDS011;42714;48.260;10.980;2023-05-23T13:08:55;18.9;;;12.0;;
51226;SDS011;42714;48.260;10.980;2023-05-23T13:13:55;22.0;;;13.0;;
51226;SDS011;42714;48.260;10.980;2023-05-23T13:18:55;19.2;;;11.4;;
51226;SDS011;42714;48.260;10.980;2023-05-23T13:23:55;19.9;;;13.6;;
51226;SDS011;42714;48.260;10.980;2023-05-23T13:28:55;22.6;;;12.4;;
51226;SDS011;42714;48.260;10.980;2023-05-23T13:33:55;18.1;;;12.4;;
51226;SDS011;42714;48.260;10.980;2023-05-23T13:38:55;18.7;;;11.8;;
51226;SDS011;42714;48.260;10.980;2023-05-23T13:43:55;20.8;;;11.3;;
51226;SDS011;42714;48.260;10.980;2023-05-23T13:48:55;20.8;;;10.8;;
51226;SDS011;42714;48.260;10.980;2023-05-23T13:53:55;19.2;;;11.5;;
51226;SDS011;42714;48.260;10.980;2023-05-23T13:58:55;19.2;;;11.7;;
51226;SDS011;42714;48.260;10.980;2023-05-23T14:03:55;22.3;;;12.1;;
51226;SDS011;42714;48.260;10.980;2023-05-23T14:08:55;22.4;;;11.6;;
51226;SDS011;42714;48.260;10.980;2023-05-23T14:13:55;17.5;;;11.6;;
51226;SDS011;42714;48.260;10.980;2023-05-23T14:18:55;15.1;;;10.1;;
51226;SDS011;42714;48.260;10.980;2023-05-23T14:23:55;15.3;;;9.2;;
51226;SDS011;42714;48.260;10.980;2023-05-23T14:28:55;15.6;;;9.4;;
51226;SDS011;42714;48.260;10.980;2023-05-23T14:33:55;21.7;;;10.8;;
51226;SDS011;42714;48.260;10.980;2023-05-23T14:38:55;13.0;;;9.5;;
51226;SDS011;42714;48.260;10.980;2023-05-23T14:43:55;16.1;;;10.3;;
51226;SDS011;42714;48.260;10.980;2023-05-23T14:48:55;18.1;;;9.9;;
51226;SDS011;42714;48.260;10.980;2023-05-23T14:53:55;16.9;;;9.3;;
51226;SDS011;42714;48.260;10.980;2023-05-23T14:58:55;18.5;;;9.6;;
51226;SDS011;42714;48.260;10.980;2023-05-23T15:03:55;14.4;;;9.7;;
51226;SDS011;42714;48.260;10.980;2023-05-23T15:08:55;14.2;;;9.6;;
51226;SDS011;42714;48.260;10.980;2023-05-23T15:13:55;14.8;;;9.5;;
51226;SDS011;42714;48.260;10.980;2023-05-23T15:18:55;16.8;;;8.6;;
51226;SDS011;42714;48.260;10.980;2023-05-23T15:23:55;16.5;;;8.7;;
51226;SDS011;42714;48.260;10.980;2023-05-23T15:28:55;14.0;;;7.7;;
51226;SDS011;42714;48.260;10.980;2023-05-23T15:33:55;13.5;;;7.8;;
51226;SDS011;42714;48.260;10.980;2023-05-23T15:38:55;13.5;;;6.6;;
51226;SDS011;42714;48.260;10.980;2023-05-23T15:43:55;15.1;;;7.2;;
51226;SDS011;42714;48.260;10.980;2023-05-23T15:48:55;11.2;;;5.5;;
51226;SDS011;42714;48.260;10.980;2023-05-23T15:53:55;11.0;;;5.4;;
51226;SDS011;42714;48.260;10.980;2023-05-23T15:58:55;10.1;;;4.9;;
51226;SDS011;42714;48.260;10.980;2023-05-23T16:03:55;7.8;;;4.7;;
51226;SDS011;42714;48.260;10.980;2023-05-23T16:08:55;10.9;;;4.3;;
51226;SDS011;42714;48.260;10.980;2023-05-23T16:13:55;11.5;;;4.2;;
51226;SDS011;42714;48.260;10.980;2023-05-23T16:18:55;10.7;;;4.0;;
51226;SDS011;42714;48.260;10.980;2023-05-23T16:23:55;8.9;;;3.7;;
51226;SDS011;42714;48.260;10.980;2023-05-23T16:28:55;5.6;;;3.4;;
51226;SDS011;42714;48.260;10.980;2023-05-23T16:33:55;6.3;;;3.2;;
51226;SDS011;42714;48.260;10.980;2023-05-23T16:38:55;13.3;;;5.4;;
51226;SDS011;42714;48.260;10.980;2023-05-23T16:43:55;8.5;;;3.6;;
51226;SDS011;42714;48.260;10.980;2023-05-23T16:48:55;8.8;;;3.6;;
51226;SDS011;42714;48.260;10.980;2023-05-23T16:53:55;5.0;;;2.6;;
51226;SDS011;42714;48.260;10.980;2023-05-23T16:58:55;6.7;;;2.0;;
51226;SDS011;42714;48.260;10.980;2023-05-23T17:03:55;4.5;;;2.0;;
51226;SDS011;42714;48.260;10.980;2023-05-23T17:08:55;5.4;;;1.5;;
51226;SDS011;42714;48.260;10.980;2023-05-23T17:13:55;5.3;;;1.4;;
51226;SDS011;42714;48.260;10.980;2023-05-23T17:18:55;4.7;;;1.8;;
51226;SDS011;42714;48.260;10.980;2023-05-23T17:23:55;4.1;;;1.8;;
51226;SDS011;42714;48.260;10.980;2023-05-23T17:28:55;6.3;;;2.0;;
51226;SDS011;42714;48.260;10.980;2023-05-23T17:33:55;6.6;;;1.7;;
51226;SDS011;42714;48.260;10.980;2023-05-23T17:38:55;5.9;;;1.8;;
51226;SDS011;42714;48.260;10.980;2023-05-23T17:43:55;4.7;;;2.2;;
51226;SDS011;42714;48.260;10.980;2023-05-23T17:48:55;5.9;;;2.0;;
51226;SDS011;42714;48.260;10.980;2023-05-23T17:53:55;4.7;;;1.6;;
51226;SDS011;42714;48.260;10.980;2023-05-23T17:58:55;5.3;;;2.0;;
51226;SDS011;42714;48.260;10.980;2023-05-23T18:03:55;3.3;;;1.6;;
51226;SDS011;42714;48.260;10.980;2023-05-23T18:08:55;7.6;;;2.7;;
51226;SDS011;42714;48.260;10.980;2023-05-23T18:13:55;4.0;;;2.3;;
51226;SDS011;42714;48.260;10.980;2023-05-23T18:18:55;3.9;;;2.0;;
51226;SDS011;42714;48.260;10.980;2023-05-23T18:23:55;4.7;;;2.1;;
51226;SDS011;42714;48.260;10.980;2023-05-23T18:28:55;6.2;;;2.4;;
51226;SDS011;42714;48.260;10.980;2023-05-23T18:33:55;4.7;;;2.5;;
51226;SDS011;42714;48.260;10.980;2023-05-23T18:38:55;7.1;;;2.8;;
51226;SDS011;42714;48.260;10.980;2023-05-23T18:43:56;5.4;;;2.3;;
51226;SDS011;42714;48.260;10.980;2023-05-23T18:48:56;6.8;;;2.9;;
51226;SDS011;42714;48.260;10.980;2023-05-23T18:53:56;5.1;;;3.2;;
51226;SDS011;42714;48.260;10.980;2023-05-23T18:58:56;9.6;;;3.6;;
51226;SDS011;42714;48.260;10.980;2023-05-23T19:03:56;6.7;;;3.1;;
51226;SDS011;42714;48.260;10.980;2023-05-23T19:08:56;7.2;;;3.5;;
51226;SDS011;42714;48.260;10.980;2023-05-23T19:13:56;7.0;;;3.3;;
51226;SDS011;42714;48.260;10.980;2023-05-23T19:18:56;9.9;;;3.8;;
51226;SDS011;42714;48.260;10.980;2023-05-23T19:23:56;9.5;;;3.4;;
51226;SDS011;42714;48.260;10.980;2023-05-23T19:28:56;10.7;;;4.1;;
51226;SDS011;42714;48.260;10.980;2023-05-23T19:33:56;9.5;;;4.6;;
51226;SDS011;42714;48.260;10.980;2023-05-23T19:38:56;11.4;;;4.9;;
51226;SDS011;42714;48.260;10.980;2023-05-23T19:43:56;7.4;;;4.6;;
51226;SDS011;42714;48.260;10.980;2023-05-23T19:48:56;11.2;;;5.3;;
51226;SDS011;42714;48.260;10.980;2023-05-23T19:53:56;9.6;;;5.1;;
51226;SDS011;42714;48.260;10.980;2023-05-23T19:58:56;13.9;;;5.0;;
51226;SDS011;42714;48.260;10.980;2023-05-23T20:03:56;9.7;;;4.4;;
51226;SDS011;42714;48.260;10.980;2023-05-23T20:08:56;9.7;;;4.9;;
51226;SDS011;42714;48.260;10.980;2023-05-23T20:13:56;7.9;;;4.7;;
51226;SDS011;42714;48.260;10.980;2023-05-23T20:18:56;10.1;;;5.5;;
51226;SDS011;42714;48.260;10.980;2023-05-23T20:23:56;9.9;;;4.5;;
51226;SDS011;42714;48.260;10.980;2023-05-23T20:28:56;8.1;;;4.8;;
51226;SDS011;42714;48.260;10.980;2023-05-23T20:33:56;8.4;;;4.5;;
51226;SDS011;42714;48.260;10.980;2023-05-23T20:38:56;8.4;;;4.5;;
51226;SDS011;42714;48.260;10.980;2023-05-23T20:43:56;9.5;;;4.6;;
51226;SDS011;42714;48.260;10.980;2023-05-23T20:48:56;9.4;;;4.9;;
51226;SDS011;42714;48.260;10.980;2023-05-23T20:53:56;7.6;;;4.2;;
51226;SDS011;42714;48.260;10.980;2023-05-23T20:58:56;6.5;;;3.9;;
51226;SDS011;42714;48.260;10.980;2023-05-23T21:03:56;9.0;;;3.7;;
51226;SDS011;42714;48.260;10.980;2023-05-23T21:08:56;7.7;;;3.8;;
51226;SDS011;42714;48.260;10.980;2023-05-23T21:13:56;6.2;;;4.0;;
51226;SDS011;42714;48.260;10.980;2023-05-23T21:18:56;6.3;;;3.8;;
51226;SDS011;42714;48.260;10.980;2023-05-23T21:23:56;7.0;;;4.0;;
51226;SDS011;42714;48.260;10.980;2023-05-23T21:28:56;6.6;;;3.8;;
51226;SDS011;42714;48.260;10.980;2023-05-23T21:33:56;7.2;;;3.6;;
51226;SDS011;42714;48.260;10.980;2023-05-23T21:38:56;6.5;;;3.7;;
51226;SDS011;42714;48.260;10.980;2023-05-23T21:43:56;7.2;;;3.7;;
51226;SDS011;42714;48.260;10.980;2023-05-23T21:48:56;5.8;;;3.3;;
51226;SDS011;42714;48.260;10.980;2023-05-23T21:53:56;7.4;;;3.7;;
51226;SDS011;42714;48.260;10.980;2023-05-23T21:58:56;8.0;;;3.8;;
51226;SDS011;42714;48.260;10.980;2023-05-23T22:03:56;6.9;;;4.0;;
51226;SDS011;42714;48.260;10.980;2023-05-23T22:08:56;9.7;;;4.7;;
51226;SDS011;42714;48.260;10.980;2023-05-23T22:13:56;8.4;;;4.4;;
51226;SDS011;42714;48.260;10.980;2023-05-23T22:18:56;8.6;;;4.8;;
51226;SDS011;42714;48.260;10.980;2023-05-23T22:23:56;7.9;;;4.5;;
51226;SDS011;42714;48.260;10.980;2023-05-23T22:28:56;7.7;;;4.5;;
51226;SDS011;42714;48.260;10.980;2023-05-23T22:33:56;8.4;;;4.7;;
51226;SDS011;42714;48.260;10.980;2023-05-23T22:38:56;8.6;;;4.4;;
51226;SDS011;42714;48.260;10.980;2023-05-23T22:43:56;8.5;;;5.2;;
51226;SDS011;42714;48.260;10.980;2023-05-23T22:48:56;11.0;;;5.3;;
51226;SDS011;42714;48.260;10.980;2023-05-23T22:53:56;9.5;;;5.9;;
51226;SDS011;42714;48.260;10.980;2023-05-23T22:58:56;10.9;;;4.7;;
51226;SDS011;42714;48.260;10.980;2023-05-23T23:03:56;6.8;;;4.8;;
51226;SDS011;42714;48.260;10.980;2023-05-23T23:08:56;8.3;;;4.9;;
51226;SDS011;42714;48.260;10.980;2023-05-23T23:13:56;7.4;;;4.8;;
51226;SDS011;42714;48.260;10.980;2023-05-23T23:18:56;8.1;;;4.5;;
51226;SDS011;42714;48.260;10.980;2023-05-23T23:23:56;6.2;;;4.2;;
51226;SDS011;42714;48.260;10.980;2023-05-23T23:28:56;6.4;;;4.1;;
51226;SDS011;42714;48.260;10.980;2023-05-23T23:33:56;7.0;;;4.1;;
51226;SDS011;42714;48.260;10.980;2023-05-23T23:38:56;6.1;;;3.5;;
51226;SDS011;42714;48.260;10.980;2023-05-23T23:43:56;5.7;;;3.6;;
51226;SDS011;42714;48.260;10.980;2023-05-23T23:48:56;5.8;;;3.2;;
51226;SDS011;42714;48.260;10.980;2023-05-23T23:53:56;4.8;;;2.8;;
51226;SDS011;42714;48.260;10.980;2023-05-23T23:58:56;5.9;;;3.1;;
